createdAt,value
2018-01-22T00:01:42.704Z,13.93
2018-01-22T00:04:10.967Z,9.90
2018-01-22T00:06:39.231Z,6.67
2018-01-22T00:09:09.061Z,7.90
2018-01-22T00:11:38.678Z,11.07
2018-01-22T00:14:08.125Z,10.00
2018-01-22T00:16:36.290Z,8.90
2018-01-22T00:19:05.281Z,8.83
2018-01-22T00:21:33.519Z,8.00
2018-01-22T00:24:01.778Z,10.07
2018-01-22T00:26:30.116Z,12.90
2018-01-22T00:28:58.375Z,13.10
2018-01-22T00:31:26.632Z,9.20
2018-01-22T00:33:54.861Z,14.63
2018-01-22T00:36:24.466Z,21.80
2018-01-22T00:38:53.967Z,15.90
2018-01-22T00:41:23.224Z,19.57
2018-01-22T00:43:51.466Z,19.90
2018-01-22T00:46:19.732Z,18.57
2018-01-22T00:48:48.732Z,22.73
2018-01-22T00:51:16.978Z,29.50
2018-01-22T00:53:45.272Z,30.80
2018-01-22T00:56:14.890Z,30.07
2018-01-22T00:58:43.027Z,27.70
2018-01-22T01:01:11.317Z,24.50
2018-01-22T01:03:39.557Z,27.83
2018-01-22T01:06:07.792Z,31.67
2018-01-22T01:08:37.440Z,38.13
2018-01-22T01:11:07.105Z,32.73
2018-01-22T01:13:36.682Z,27.90
2018-01-22T01:16:04.816Z,26.57
2018-01-22T01:18:33.072Z,32.47
2018-01-22T01:21:01.301Z,31.10
2018-01-22T01:23:30.328Z,24.57
2018-01-22T01:25:59.332Z,27.90
2018-01-22T01:28:28.340Z,20.07
2018-01-22T01:30:57.904Z,25.90
2018-01-22T01:33:26.904Z,37.90
2018-01-22T01:35:56.487Z,39.07
2018-01-22T01:40:59.663Z,32.90
2018-01-22T01:43:27.991Z,38.90
2018-01-22T01:45:56.215Z,27.43
2018-01-22T01:48:25.795Z,29.20
2018-01-22T01:50:53.945Z,37.40
2018-01-22T01:53:22.939Z,33.47
2018-01-22T01:55:52.329Z,29.37
2018-01-22T01:58:21.425Z,43.00
2018-01-22T02:00:50.068Z,40.03
2018-01-22T02:03:19.432Z,46.80
2018-01-22T02:05:48.464Z,39.93
2018-01-22T02:08:17.478Z,34.27
2018-01-22T02:10:46.840Z,21.83
2018-01-22T02:13:16.652Z,28.77
2018-01-22T02:15:46.248Z,28.17
2018-01-22T02:18:14.760Z,27.83
2018-01-22T02:20:43.044Z,40.77
2018-01-22T02:23:11.300Z,51.90
2018-01-22T02:25:39.576Z,25.57
2018-01-22T02:28:07.858Z,32.00
2018-01-22T02:30:36.092Z,40.33
2018-01-22T02:33:05.833Z,36.10
2018-01-22T02:35:35.451Z,27.80
2018-01-22T02:38:04.328Z,24.80
2018-01-22T02:40:32.560Z,32.83
2018-01-22T02:43:00.864Z,33.57
2018-01-22T02:45:29.122Z,37.77
2018-01-22T02:47:58.148Z,77.93
2018-01-22T02:50:26.423Z,27.33
2018-01-22T02:52:54.656Z,35.43
2018-01-22T02:55:22.892Z,26.30
2018-01-22T02:57:52.702Z,35.20
2018-01-22T03:00:20.932Z,35.23
2018-01-22T03:02:50.519Z,30.37
2018-01-22T03:05:19.855Z,31.13
2018-01-22T03:07:48.088Z,34.27
2018-01-22T03:10:17.088Z,36.23
2018-01-22T03:12:45.762Z,48.37
2018-01-22T03:15:14.420Z,32.20
2018-01-22T03:20:44.152Z,14.53
2018-01-22T03:23:12.396Z,24.53
2018-01-22T03:25:41.780Z,23.40
2018-01-22T03:28:10.129Z,8.53
2018-01-22T03:30:40.702Z,10.90
2018-01-22T03:33:10.117Z,12.97
2018-01-22T03:35:38.432Z,14.77
2018-01-22T03:38:07.074Z,21.83
2018-01-22T03:40:36.647Z,7.30
2018-01-22T03:43:04.790Z,8.33
2018-01-22T03:45:33.780Z,8.53
2018-01-22T03:48:02.070Z,12.93
2018-01-22T03:50:31.622Z,11.47
2018-01-22T03:52:59.760Z,10.07
2018-01-22T03:55:27.996Z,8.87
2018-01-22T03:57:56.520Z,10.20
2018-01-22T04:00:25.891Z,9.70
2018-01-22T04:02:54.168Z,10.73
2018-01-22T04:05:23.546Z,11.67
2018-01-22T04:07:51.790Z,17.03
2018-01-22T04:10:20.070Z,13.33
2018-01-22T04:12:49.808Z,17.47
2018-01-22T04:15:18.075Z,22.93
2018-01-22T04:17:46.356Z,22.17
2018-01-22T04:20:14.604Z,15.87
2018-01-22T04:22:42.854Z,25.07
2018-01-22T04:25:12.661Z,22.10
2018-01-22T04:27:40.916Z,21.00
2018-01-22T04:30:09.180Z,37.30
2018-01-22T04:32:39.429Z,30.80
2018-01-22T04:35:09.193Z,36.40
2018-01-22T04:37:37.424Z,27.83
2018-01-22T04:40:06.472Z,42.70
2018-01-22T04:42:36.063Z,35.47
2018-01-22T04:45:04.177Z,25.57
2018-01-22T04:47:32.436Z,19.77
2018-01-22T04:50:00.668Z,16.13
2018-01-22T04:52:28.926Z,19.23
2018-01-22T04:54:57.968Z,34.53
2018-01-22T04:57:26.204Z,31.03
2018-01-22T04:59:54.436Z,23.17
2018-01-22T05:02:24.219Z,20.17
2018-01-22T05:04:52.447Z,22.00
2018-01-22T05:07:22.187Z,19.83
2018-01-22T05:09:50.469Z,23.87
2018-01-22T05:12:18.714Z,25.20
2018-01-22T05:14:46.969Z,19.30
2018-01-22T05:17:16.016Z,12.57
2018-01-22T05:19:45.387Z,14.03
2018-01-22T05:22:13.624Z,11.87
2018-01-22T05:24:43.278Z,16.30
2018-01-22T05:27:12.152Z,16.93
2018-01-22T05:29:40.388Z,11.03
2018-01-22T05:32:08.664Z,12.27
2018-01-22T05:34:37.696Z,13.00
2018-01-22T05:37:07.306Z,12.07
2018-01-22T05:39:35.849Z,9.20
2018-01-22T05:42:04.464Z,10.20
2018-01-22T05:44:32.702Z,9.90
2018-01-22T05:47:00.959Z,15.40
2018-01-22T05:49:29.197Z,16.17
2018-01-22T05:51:57.442Z,11.10
2018-01-22T05:54:26.472Z,14.67
2018-01-22T05:56:55.483Z,11.93
2018-01-22T05:59:24.862Z,14.00
2018-01-22T06:01:53.544Z,11.80
2018-01-22T06:04:21.794Z,12.33
2018-01-22T06:06:51.548Z,10.90
2018-01-22T06:09:19.864Z,12.17
2018-01-22T06:11:49.458Z,9.90
2018-01-22T06:14:17.610Z,9.80
2018-01-22T06:16:45.868Z,10.53
2018-01-22T06:19:15.460Z,9.87
2018-01-22T06:21:43.568Z,13.03
2018-01-22T06:24:11.860Z,12.10
2018-01-22T06:26:40.092Z,12.30
2018-01-22T06:29:08.348Z,11.70
2018-01-22T06:31:38.352Z,13.37
2018-01-22T06:34:06.614Z,11.47
2018-01-22T06:36:34.908Z,9.70
2018-01-22T06:39:03.151Z,12.33
2018-01-22T06:41:31.380Z,12.00
2018-01-22T06:44:01.147Z,12.03
2018-01-22T06:46:29.388Z,11.57
2018-01-22T06:48:57.620Z,12.40
2018-01-22T06:51:27.265Z,14.17
2018-01-22T06:53:55.360Z,14.50
2018-01-22T06:56:24.365Z,14.23
2018-01-22T06:58:53.948Z,14.67
2018-01-22T07:01:23.625Z,17.83
2018-01-22T07:03:53.219Z,20.90
2018-01-22T07:06:22.486Z,17.57
2018-01-22T07:08:51.908Z,19.40
2018-01-22T07:11:20.154Z,18.33
2018-01-22T07:13:48.409Z,16.90
2018-01-22T07:16:17.451Z,15.67
2018-01-22T07:18:46.462Z,14.10
2018-01-22T07:21:16.048Z,14.57
2018-01-22T07:23:44.957Z,16.03
2018-01-22T07:26:13.195Z,19.67
2018-01-22T07:28:42.794Z,18.40
2018-01-22T07:31:11.696Z,18.30
2018-01-22T07:33:39.937Z,20.07
2018-01-22T07:36:08.210Z,19.03
2018-01-22T07:38:37.267Z,18.43
2018-01-22T07:41:05.514Z,19.87
2018-01-22T07:43:33.744Z,20.57
2018-01-22T07:46:02.008Z,23.03
2018-01-22T07:48:30.239Z,22.73
2018-01-22T07:50:58.473Z,24.57
2018-01-22T07:53:28.328Z,27.07
2018-01-22T07:55:56.560Z,28.90
2018-01-22T07:58:24.797Z,40.60
2018-01-22T08:00:53.090Z,40.33
2018-01-22T08:03:21.345Z,39.50
2018-01-22T08:05:49.615Z,34.43
2018-01-22T08:08:19.044Z,34.17
2018-01-22T08:10:48.661Z,31.30
2018-01-22T08:13:17.564Z,32.37
2018-01-22T08:15:46.986Z,34.90
2018-01-22T08:18:15.999Z,27.37
2018-01-22T08:20:44.228Z,34.03
2018-01-22T08:23:14.195Z,32.53
2018-01-22T08:25:43.458Z,46.03
2018-01-22T08:28:12.080Z,35.87
2018-01-22T08:30:40.340Z,45.20
2018-01-22T08:33:09.946Z,36.10
2018-01-22T08:35:38.069Z,36.97
2018-01-22T08:38:07.110Z,38.27
2018-01-22T08:40:36.126Z,32.13
2018-01-22T08:43:04.360Z,38.07
2018-01-22T08:45:32.640Z,39.57
2018-01-22T08:48:00.872Z,35.70
2018-01-22T08:50:29.118Z,40.23
2018-01-22T08:52:57.385Z,32.23
2018-01-22T08:55:25.616Z,39.73
2018-01-22T08:57:53.860Z,36.77
2018-01-22T09:00:22.904Z,32.07
2018-01-22T09:02:52.952Z,34.70
2018-01-22T09:05:21.197Z,33.37
2018-01-22T09:07:49.518Z,33.80
2018-01-22T09:10:17.778Z,34.80
2018-01-22T09:12:47.553Z,40.20
2018-01-22T09:15:15.888Z,39.83
2018-01-22T09:17:44.124Z,36.03
2018-01-22T09:20:12.418Z,41.90
2018-01-22T09:22:40.654Z,39.97
2018-01-22T09:25:08.892Z,38.90
2018-01-22T09:27:37.180Z,45.50
2018-01-22T09:30:06.989Z,37.70
2018-01-22T09:32:35.221Z,44.90
2018-01-22T09:35:03.455Z,36.73
2018-01-22T09:37:32.507Z,40.43
2018-01-22T09:40:00.735Z,48.30
2018-01-22T09:42:28.972Z,39.93
2018-01-22T09:44:58.745Z,44.40
2018-01-22T09:47:26.972Z,44.47
2018-01-22T09:49:55.207Z,39.17
2018-01-22T09:52:24.840Z,48.60
2018-01-22T09:54:53.368Z,40.20
2018-01-22T09:57:22.384Z,37.60
2018-01-22T09:59:51.800Z,36.60
2018-01-22T10:02:20.830Z,37.83
2018-01-22T10:04:49.859Z,38.27
2018-01-22T10:07:18.138Z,36.00
2018-01-22T10:09:47.743Z,32.30
2018-01-22T10:12:16.630Z,30.03
2018-01-22T10:14:50.964Z,30.93
2018-01-22T10:17:19.234Z,26.20
2018-01-22T10:19:48.617Z,27.67
2018-01-22T10:22:17.697Z,28.80
2018-01-22T10:24:46.702Z,29.30
2018-01-22T10:27:16.298Z,30.90
2018-01-22T10:29:45.571Z,36.17
2018-01-22T10:32:15.167Z,22.27
2018-01-22T10:34:43.280Z,26.03
2018-01-22T10:37:11.549Z,20.00
2018-01-22T10:39:39.788Z,22.90
2018-01-22T10:42:09.532Z,24.03
2018-01-22T10:44:38.579Z,19.90
2018-01-22T10:47:06.824Z,27.40
2018-01-22T10:49:36.444Z,19.20
2018-01-22T10:52:04.598Z,19.07
2018-01-22T10:54:32.853Z,26.23
2018-01-22T10:57:01.068Z,17.90
2018-01-22T10:59:29.367Z,21.90
2018-01-22T11:01:58.956Z,20.03
2018-01-22T11:04:27.464Z,17.30
2018-01-22T11:06:55.731Z,16.90
2018-01-22T11:09:24.743Z,14.03
2018-01-22T11:11:53.022Z,17.27
2018-01-22T11:14:21.293Z,16.63
2018-01-22T11:16:49.559Z,14.23
2018-01-22T11:19:17.814Z,15.67
2018-01-22T11:21:47.274Z,25.73
2018-01-22T11:24:15.517Z,14.53
2018-01-22T11:26:43.769Z,20.73
2018-01-22T11:29:12.084Z,14.77
2018-01-22T11:31:40.324Z,16.30
2018-01-22T11:34:09.908Z,15.40
2018-01-22T11:36:38.818Z,23.53
2018-01-22T11:39:07.072Z,12.17
2018-01-22T11:41:35.342Z,18.63
2018-01-22T11:44:04.400Z,20.30
2018-01-22T11:46:34.553Z,15.50
2018-01-22T11:49:04.264Z,16.87
2018-01-22T11:51:32.519Z,10.77
2018-01-22T11:54:00.756Z,19.03
2018-01-22T11:56:29.013Z,19.97
2018-01-22T11:58:58.774Z,9.60
2018-01-22T12:01:27.008Z,10.53
2018-01-22T12:03:55.292Z,15.17
2018-01-22T12:06:23.519Z,11.77
2018-01-22T12:08:51.765Z,16.53
2018-01-22T12:11:20.044Z,12.37
2018-01-22T12:13:49.632Z,11.70
2018-01-22T12:16:18.902Z,13.97
2018-01-22T12:18:48.706Z,13.40
2018-01-22T12:21:18.307Z,9.00
2018-01-22T12:23:46.831Z,12.27
2018-01-22T12:26:16.478Z,16.57
2018-01-22T12:28:45.372Z,16.40
2018-01-22T12:31:14.413Z,15.03
2018-01-22T12:33:42.687Z,11.40
2018-01-22T12:36:10.912Z,15.97
2018-01-22T12:38:39.154Z,10.53
2018-01-22T12:41:08.944Z,15.23
2018-01-22T12:43:37.172Z,11.73
2018-01-22T12:46:05.803Z,16.43
2018-01-22T12:48:35.226Z,12.67
2018-01-22T12:51:04.236Z,13.23
2018-01-22T12:53:33.622Z,10.77
2018-01-22T12:56:02.652Z,12.47
2018-01-22T12:58:32.391Z,14.07
2018-01-22T13:01:00.633Z,14.20
2018-01-22T13:03:30.047Z,12.97
2018-01-22T13:05:58.686Z,12.60
2018-01-22T13:08:26.921Z,15.67
2018-01-22T13:10:55.180Z,16.40
2018-01-22T13:13:24.179Z,10.90
2018-01-22T13:15:53.755Z,9.20
2018-01-22T13:18:22.287Z,18.27
2018-01-22T13:20:51.283Z,14.70
2018-01-22T13:23:19.541Z,13.00
2018-01-22T13:25:49.497Z,11.57
2018-01-22T13:28:18.882Z,17.53
2018-01-22T13:30:47.131Z,16.43
2018-01-22T13:33:15.448Z,11.20
2018-01-22T13:35:44.099Z,13.00
2018-01-22T13:38:12.344Z,13.83
2018-01-22T13:40:46.339Z,13.33
2018-01-22T13:43:14.592Z,11.93
2018-01-22T13:45:44.239Z,14.80
2018-01-22T13:48:13.150Z,12.30
2018-01-22T13:50:42.888Z,10.67
2018-01-22T13:53:11.880Z,16.10
2018-01-22T13:55:41.491Z,18.13
2018-01-22T13:58:10.364Z,12.47
2018-01-22T14:00:38.601Z,14.83
2018-01-22T14:03:06.860Z,10.87
2018-01-22T14:05:35.114Z,12.53
2018-01-22T14:08:03.356Z,12.20
2018-01-22T14:10:32.280Z,11.03
2018-01-22T14:13:01.290Z,15.20
2018-01-22T14:15:29.521Z,16.57
2018-01-22T14:17:57.815Z,24.10
2018-01-22T14:20:26.058Z,14.57
2018-01-22T14:22:54.292Z,16.37
2018-01-22T14:25:22.581Z,13.50
2018-01-22T14:27:51.588Z,14.40
2018-01-22T14:30:20.625Z,8.97
2018-01-22T14:32:50.240Z,13.60
2018-01-22T14:35:18.422Z,11.80
2018-01-22T14:37:48.178Z,16.23
2018-01-22T14:40:17.822Z,12.33
2018-01-22T14:42:46.334Z,15.13
2018-01-22T14:45:14.665Z,14.07
2018-01-22T14:47:43.686Z,12.83
2018-01-22T14:50:12.680Z,9.77
2018-01-22T14:52:41.675Z,10.20
2018-01-22T14:55:11.096Z,9.80
2018-01-22T14:57:39.320Z,17.33
2018-01-22T15:00:07.552Z,18.30
2018-01-22T15:02:35.846Z,16.50
2018-01-22T15:05:04.096Z,10.77
2018-01-22T15:07:32.320Z,12.53
2018-01-22T15:10:01.927Z,9.07
2018-01-22T15:12:31.536Z,14.80
2018-01-22T15:14:59.768Z,12.87
2018-01-22T15:17:29.380Z,9.40
2018-01-22T15:19:57.880Z,10.50
2018-01-22T15:22:26.112Z,12.97
2018-01-22T15:24:55.143Z,14.97
2018-01-22T15:27:24.154Z,15.60
2018-01-22T15:29:53.163Z,12.03
2018-01-22T15:32:21.444Z,21.23
2018-01-22T15:34:49.680Z,9.77
2018-01-22T15:37:19.077Z,12.83
2018-01-22T15:39:47.398Z,15.10
2018-01-22T15:42:17.020Z,15.03
2018-01-22T15:44:45.924Z,19.60
2018-01-22T15:47:14.197Z,12.60
2018-01-22T15:49:42.423Z,25.13
2018-01-22T15:52:12.004Z,17.10
2018-01-22T15:54:40.548Z,12.30
2018-01-22T15:57:10.138Z,16.60
2018-01-22T15:59:38.240Z,12.27
2018-01-22T16:02:07.852Z,13.47
2018-01-22T16:04:36.742Z,13.83
2018-01-22T16:07:06.480Z,21.80
2018-01-22T16:09:34.862Z,15.33
2018-01-22T16:12:03.091Z,15.70
2018-01-22T16:14:31.342Z,18.87
2018-01-22T16:16:59.620Z,14.47
2018-01-22T16:19:28.988Z,10.93
2018-01-22T16:21:57.234Z,11.73
2018-01-22T16:24:25.494Z,17.43
2018-01-22T16:26:53.726Z,17.70
2018-01-22T16:29:23.459Z,13.13
2018-01-22T16:31:52.003Z,26.53
2018-01-22T16:34:22.532Z,12.87
2018-01-22T16:36:51.524Z,12.23
2018-01-22T16:39:20.101Z,15.53
2018-01-22T16:41:49.450Z,14.57
2018-01-22T16:44:17.789Z,15.93
2018-01-22T16:46:51.848Z,16.47
2018-01-22T16:49:20.133Z,16.77
2018-01-22T16:51:49.168Z,14.33
2018-01-22T16:54:18.200Z,18.30
2018-01-22T16:56:46.439Z,19.53
2018-01-22T16:59:14.686Z,15.97
2018-01-22T17:01:43.728Z,18.30
2018-01-22T17:04:13.064Z,16.17
2018-01-22T17:06:42.650Z,20.00
2018-01-22T17:09:11.560Z,12.93
2018-01-22T17:11:39.788Z,19.40
2018-01-22T17:14:09.144Z,15.50
2018-01-22T17:16:38.767Z,16.53
2018-01-22T17:19:08.219Z,20.47
2018-01-22T17:21:37.671Z,26.57
2018-01-22T17:24:05.850Z,16.47
2018-01-22T17:26:34.073Z,14.77
2018-01-22T17:29:02.295Z,16.40
2018-01-22T17:31:30.597Z,18.20
2018-01-22T17:33:59.951Z,19.40
2018-01-22T17:36:28.180Z,19.00
2018-01-22T17:38:56.436Z,12.20
2018-01-22T17:41:25.536Z,17.47
2018-01-22T17:43:55.096Z,20.90
2018-01-22T17:46:24.246Z,17.13
2018-01-22T17:48:53.824Z,16.90
2018-01-22T17:51:22.738Z,17.50
2018-01-22T17:53:52.209Z,20.13
2018-01-22T17:56:20.847Z,17.70
2018-01-22T17:58:49.063Z,17.20
2018-01-22T18:01:17.324Z,17.33
2018-01-22T18:03:45.956Z,18.13
2018-01-22T18:06:16.101Z,19.00
2018-01-22T18:08:44.338Z,20.07
2018-01-22T18:11:14.068Z,14.70
2018-01-22T18:13:43.832Z,18.90
2018-01-22T18:16:12.828Z,26.13
2018-01-22T18:18:42.192Z,21.87
2018-01-22T18:21:10.468Z,26.07
2018-01-22T18:23:38.698Z,20.43
2018-01-22T18:26:06.985Z,19.73
2018-01-22T18:28:35.239Z,15.43
2018-01-22T18:31:03.523Z,23.67
2018-01-22T18:33:32.512Z,18.43
2018-01-22T18:36:01.946Z,21.20
2018-01-22T18:38:30.983Z,20.03
2018-01-22T18:41:00.542Z,22.30
2018-01-22T18:43:37.447Z,20.93
2018-01-22T18:46:07.028Z,21.23
2018-01-22T18:48:35.280Z,20.77
2018-01-22T18:51:03.544Z,21.77
2018-01-22T18:53:31.819Z,27.93
2018-01-22T18:56:00.122Z,18.17
2018-01-22T18:58:28.318Z,15.70
2018-01-22T19:00:56.592Z,23.60
2018-01-22T19:03:24.841Z,18.70
2018-01-22T19:05:54.572Z,20.87
2018-01-22T19:08:24.214Z,15.00
2018-01-22T19:10:53.679Z,19.30
2018-01-22T19:13:23.295Z,15.87
2018-01-22T19:15:51.527Z,18.30
2018-01-22T19:18:19.847Z,21.43
2018-01-22T19:20:48.835Z,27.00
2018-01-22T19:23:17.138Z,21.87
2018-01-22T19:25:45.448Z,23.43
2018-01-22T19:28:15.090Z,24.87
2018-01-22T19:30:43.224Z,25.30
2018-01-22T19:33:11.480Z,21.47
2018-01-22T19:35:40.141Z,16.43
2018-01-22T19:38:09.539Z,30.27
2018-01-22T19:40:37.780Z,26.93
2018-01-22T19:43:06.071Z,23.50
2018-01-22T19:45:35.689Z,19.13
2018-01-22T19:48:04.638Z,29.27
2018-01-22T19:50:33.255Z,25.73
2018-01-22T19:53:02.844Z,17.53
2018-01-22T19:55:30.984Z,26.33
2018-01-22T19:57:59.216Z,20.50
2018-01-22T20:00:27.439Z,17.70
2018-01-22T20:02:55.750Z,28.63
2018-01-22T20:05:23.960Z,33.40
2018-01-22T20:07:53.026Z,20.30
2018-01-22T20:10:21.299Z,18.93
2018-01-22T20:12:49.537Z,25.37
2018-01-22T20:15:19.154Z,28.47
2018-01-22T20:17:47.370Z,32.90
2018-01-22T20:20:15.652Z,19.73
2018-01-22T20:22:43.906Z,20.03
2018-01-22T20:25:12.155Z,28.80
2018-01-22T20:27:40.443Z,23.37
2018-01-22T20:30:10.015Z,24.73
2018-01-22T20:32:39.287Z,24.40
2018-01-22T20:35:08.913Z,21.60
2018-01-22T20:37:37.059Z,24.40
2018-01-22T20:40:07.436Z,28.37
2018-01-22T20:42:37.074Z,30.27
2018-01-22T20:45:06.582Z,22.67
2018-01-22T20:47:34.951Z,24.27
2018-01-22T20:50:04.591Z,28.07
2018-01-22T20:52:34.091Z,19.50
2018-01-22T20:55:03.659Z,35.43
2018-01-22T20:57:32.884Z,32.60
2018-01-22T21:00:01.177Z,18.07
2018-01-22T21:02:29.862Z,23.87
2018-01-22T21:04:59.451Z,29.20
2018-01-22T21:07:28.759Z,21.67
2018-01-22T21:09:58.202Z,24.63
2018-01-22T21:12:26.430Z,32.27
2018-01-22T21:14:54.712Z,26.10
2018-01-22T21:17:23.037Z,25.57
2018-01-22T21:19:52.667Z,31.10
2018-01-22T21:22:22.325Z,17.33
2018-01-22T21:24:51.391Z,26.07
2018-01-22T21:27:20.394Z,29.50
2018-01-22T21:29:49.989Z,25.23
2018-01-22T21:32:19.371Z,20.23
2018-01-22T21:34:49.273Z,25.07
2018-01-22T21:37:17.490Z,16.37
2018-01-22T21:39:45.801Z,21.90
2018-01-22T21:42:14.020Z,22.37
2018-01-22T21:44:43.453Z,18.83
2018-01-22T21:47:12.462Z,23.17
2018-01-22T21:49:41.456Z,18.43
2018-01-22T21:52:10.122Z,22.43
2018-01-22T21:54:38.403Z,23.83
2018-01-22T21:57:07.012Z,25.50
2018-01-22T21:59:36.817Z,25.33
2018-01-22T22:02:05.150Z,21.77
2018-01-22T22:04:34.816Z,23.93
2018-01-22T22:07:04.106Z,17.53
2018-01-22T22:09:32.383Z,25.73
2018-01-22T22:12:01.960Z,26.17
2018-01-22T22:14:30.496Z,26.00
2018-01-22T22:16:58.723Z,21.37
2018-01-22T22:19:26.989Z,20.13
2018-01-22T22:21:55.302Z,38.30
2018-01-22T22:24:23.575Z,20.00
2018-01-22T22:26:51.775Z,22.77
2018-01-22T22:29:20.122Z,29.33
2018-01-22T22:31:49.859Z,30.50
2018-01-22T22:34:19.519Z,39.43
2018-01-22T22:36:48.101Z,27.10
2018-01-22T22:39:17.705Z,25.50
2018-01-22T22:41:45.820Z,33.57
2018-01-22T22:44:15.456Z,27.13
2018-01-22T22:46:43.975Z,24.13
2018-01-22T22:49:12.260Z,26.17
2018-01-22T22:51:40.560Z,31.73
2018-01-22T22:54:10.143Z,33.07
2018-01-22T22:56:39.770Z,29.07
2018-01-22T22:59:09.403Z,20.47
2018-01-22T23:01:37.519Z,32.03
2018-01-22T23:04:05.891Z,49.00
2018-01-22T23:06:34.985Z,33.83
2018-01-22T23:09:03.204Z,23.33
2018-01-22T23:11:32.200Z,24.30
2018-01-22T23:14:00.468Z,26.37
2018-01-22T23:16:29.854Z,25.30
2018-01-22T23:18:58.476Z,17.40
2018-01-22T23:21:28.224Z,25.77
2018-01-22T23:23:57.588Z,22.30
2018-01-22T23:26:25.838Z,31.53
2018-01-22T23:28:54.126Z,38.63
2018-01-22T23:31:22.348Z,36.33
2018-01-22T23:33:50.595Z,31.00
2018-01-22T23:36:18.882Z,27.60
2018-01-22T23:38:48.271Z,37.70
2018-01-22T23:41:16.515Z,21.23
2018-01-22T23:43:46.135Z,28.10
2018-01-22T23:46:14.912Z,20.67
2018-01-22T23:48:44.502Z,28.43
2018-01-22T23:51:14.010Z,35.30
2018-01-22T23:53:43.499Z,28.93
2018-01-22T23:56:12.966Z,19.60
2018-01-22T23:58:42.259Z,19.47
